createdAt,value
2022-12-27T00:01:31.834Z,99198.16
2022-12-27T00:03:58.813Z,99231.50
2022-12-27T00:06:25.784Z,99214.47
2022-12-27T00:08:53.211Z,99200.53
2022-12-27T00:11:20.045Z,99203.94
2022-12-27T00:13:46.879Z,99219.97
2022-12-27T00:16:14.291Z,99232.00
2022-12-27T00:18:41.145Z,99232.34
2022-12-27T00:21:08.159Z,99204.84
2022-12-27T00:23:35.411Z,99253.88
2022-12-27T00:26:02.276Z,99233.31
2022-12-27T00:28:30.145Z,99241.44
2022-12-27T00:30:57.012Z,99221.38
2022-12-27T00:33:24.953Z,99232.53
2022-12-27T00:35:52.054Z,99256.94
2022-12-27T00:38:19.499Z,99236.72
2022-12-27T00:40:46.518Z,99241.16
2022-12-27T00:43:13.348Z,99248.97
2022-12-27T00:45:40.640Z,99263.88
2022-12-27T00:48:07.449Z,99248.53
2022-12-27T00:50:34.456Z,99285.31
2022-12-27T00:53:01.243Z,99256.13
2022-12-27T00:55:28.359Z,99262.88
2022-12-27T00:57:55.335Z,99307.03
2022-12-27T01:00:22.365Z,99294.16
2022-12-27T01:02:51.385Z,99277.28
2022-12-27T01:05:18.226Z,99291.94
2022-12-27T01:07:45.103Z,99289.28
2022-12-27T01:10:12.942Z,99320.09
2022-12-27T01:12:39.743Z,99317.84
2022-12-27T01:15:06.639Z,99323.63
2022-12-27T01:17:34.528Z,99333.72
2022-12-27T01:20:01.369Z,99324.41
2022-12-27T01:22:28.395Z,99351.06
2022-12-27T01:24:55.391Z,99348.44
2022-12-27T01:27:22.639Z,99348.13
2022-12-27T01:29:49.520Z,99356.03
2022-12-27T01:32:17.541Z,99350.69
2022-12-27T01:34:44.389Z,99361.72
2022-12-27T01:37:11.244Z,99363.75
2022-12-27T01:39:38.057Z,99374.72
2022-12-27T01:42:05.511Z,99375.13
2022-12-27T01:44:33.562Z,99362.63
2022-12-27T01:47:00.478Z,99374.72
2022-12-27T01:49:28.375Z,99388.38
2022-12-27T01:51:56.195Z,99371.66
2022-12-27T01:54:26.610Z,99392.13
2022-12-27T01:56:53.519Z,99401.00
2022-12-27T01:59:20.575Z,99404.28
2022-12-27T02:01:47.545Z,99398.22
2022-12-27T02:04:14.928Z,99402.84
2022-12-27T02:06:42.034Z,99417.53
2022-12-27T02:09:08.937Z,99412.47
2022-12-27T02:11:35.964Z,99404.03
2022-12-27T02:14:03.449Z,99410.09
2022-12-27T02:16:30.778Z,99428.94
2022-12-27T02:18:57.988Z,99423.44
2022-12-27T02:21:25.915Z,99456.75
2022-12-27T02:23:52.953Z,99444.47
2022-12-27T02:26:21.116Z,99452.84
2022-12-27T02:28:48.399Z,99450.22
2022-12-27T02:31:15.695Z,99460.13
2022-12-27T02:33:43.159Z,99460.13
2022-12-27T02:36:10.567Z,99454.34
2022-12-27T02:38:37.652Z,99444.75
2022-12-27T02:41:05.026Z,99447.13
2022-12-27T02:43:31.928Z,99458.31
2022-12-27T02:45:58.918Z,99471.91
2022-12-27T02:48:26.060Z,99474.66
2022-12-27T02:50:52.902Z,99486.16
2022-12-27T02:53:20.102Z,99473.03
2022-12-27T02:55:47.096Z,99474.47
2022-12-27T02:58:15.083Z,99465.78
2022-12-27T03:00:41.953Z,99464.47
2022-12-27T03:03:08.994Z,99488.38
2022-12-27T03:05:35.938Z,99483.69
2022-12-27T03:08:04.805Z,99474.38
2022-12-27T03:10:36.473Z,99479.19
2022-12-27T03:13:04.520Z,99485.91
2022-12-27T03:15:33.541Z,99480.06
2022-12-27T03:18:00.834Z,99481.50
2022-12-27T03:20:29.818Z,99489.88
2022-12-27T03:22:57.702Z,99498.19
2022-12-27T03:25:24.509Z,99494.47
2022-12-27T03:27:51.365Z,99508.38
2022-12-27T03:30:18.301Z,99509.19
2022-12-27T03:32:45.464Z,99509.91
2022-12-27T03:35:12.369Z,99503.44
2022-12-27T03:37:39.303Z,99521.38
2022-12-27T03:40:07.378Z,99521.50
2022-12-27T03:42:34.190Z,99537.84
2022-12-27T03:45:01.053Z,99531.19
2022-12-27T03:47:28.908Z,99536.91
2022-12-27T03:49:55.768Z,99544.91
2022-12-27T03:52:22.801Z,99549.66
2022-12-27T03:54:49.753Z,99549.38
2022-12-27T03:57:16.598Z,99561.38
2022-12-27T03:59:43.557Z,99558.28
2022-12-27T04:02:10.935Z,99562.09
2022-12-27T04:04:38.019Z,99576.09
2022-12-27T04:07:05.113Z,99566.56
2022-12-27T04:09:32.000Z,99557.63
2022-12-27T04:11:58.868Z,99562.47
2022-12-27T04:14:25.708Z,99577.22
2022-12-27T04:16:52.518Z,99572.06
2022-12-27T04:19:19.403Z,99577.78
2022-12-27T04:21:46.662Z,99579.03
2022-12-27T04:24:13.532Z,99582.72
2022-12-27T04:26:40.488Z,99596.19
2022-12-27T04:29:07.478Z,99603.31
2022-12-27T04:31:35.840Z,99594.94
2022-12-27T04:34:03.148Z,99612.47
2022-12-27T04:36:30.209Z,99602.53
2022-12-27T04:38:57.144Z,99608.59
2022-12-27T04:41:24.023Z,99616.94
2022-12-27T04:43:51.137Z,99619.75
2022-12-27T04:46:18.013Z,99628.56
2022-12-27T04:48:45.135Z,99621.34
2022-12-27T04:51:12.315Z,99627.88
2022-12-27T04:53:39.093Z,99625.63
2022-12-27T04:56:06.137Z,99644.56
2022-12-27T04:58:33.343Z,99652.44
2022-12-27T05:01:00.345Z,99655.81
2022-12-27T05:03:27.138Z,99645.09
2022-12-27T05:05:54.098Z,99660.75
2022-12-27T05:08:21.723Z,99654.50
2022-12-27T05:10:48.775Z,99670.56
2022-12-27T05:13:15.706Z,99677.13
2022-12-27T05:15:42.482Z,99676.91
2022-12-27T05:18:09.408Z,99675.03
2022-12-27T05:20:36.660Z,99687.47
2022-12-27T05:23:05.077Z,99692.84
2022-12-27T05:25:32.254Z,99701.06
2022-12-27T05:27:59.058Z,99699.94
2022-12-27T05:30:26.096Z,99695.53
2022-12-27T05:32:52.963Z,99697.28
2022-12-27T05:35:19.838Z,99711.34
2022-12-27T05:37:51.476Z,99715.38
2022-12-27T05:40:21.524Z,99729.53
2022-12-27T05:42:49.766Z,99727.25
2022-12-27T05:45:17.570Z,99730.25
2022-12-27T05:47:44.352Z,99731.97
2022-12-27T05:50:11.230Z,99740.19
2022-12-27T05:52:41.203Z,99740.31
2022-12-27T05:55:08.328Z,99741.22
2022-12-27T05:57:35.167Z,99773.88
2022-12-27T06:00:02.766Z,99772.66
2022-12-27T06:02:29.658Z,99767.81
2022-12-27T06:04:56.613Z,99780.00
2022-12-27T06:07:23.488Z,99789.03
2022-12-27T06:09:50.457Z,99785.41
2022-12-27T06:12:17.243Z,99800.34
2022-12-27T06:14:44.324Z,99798.47
2022-12-27T06:17:11.381Z,99805.28
2022-12-27T06:19:38.187Z,99832.78
2022-12-27T06:22:05.180Z,99853.16
2022-12-27T06:24:32.074Z,99858.50
2022-12-27T06:26:58.934Z,99870.13
2022-12-27T06:29:26.937Z,99877.88
2022-12-27T06:31:54.102Z,99881.06
2022-12-27T06:34:25.123Z,99894.94
2022-12-27T06:36:51.966Z,99897.78
2022-12-27T06:39:18.801Z,99902.56
2022-12-27T06:41:46.193Z,99906.69
2022-12-27T06:44:12.990Z,99910.28
2022-12-27T06:46:39.846Z,99926.06
2022-12-27T06:49:06.865Z,99938.00
2022-12-27T06:51:33.669Z,99950.41
2022-12-27T06:54:00.556Z,99952.16
2022-12-27T06:56:27.365Z,99944.00
2022-12-27T06:58:54.263Z,99951.44
2022-12-27T07:01:21.202Z,99952.50
2022-12-27T07:03:48.263Z,99959.53
2022-12-27T07:06:15.298Z,99971.25
2022-12-27T07:08:42.059Z,99983.59
2022-12-27T07:11:08.937Z,100003.84
2022-12-27T07:13:35.788Z,99997.41
2022-12-27T07:16:02.629Z,100009.97
2022-12-27T07:18:29.541Z,100009.44
2022-12-27T07:20:56.281Z,100024.41
2022-12-27T07:23:23.219Z,100033.50
2022-12-27T07:25:50.210Z,100034.94
2022-12-27T07:28:17.999Z,100039.50
2022-12-27T07:30:44.802Z,100063.25
2022-12-27T07:33:11.684Z,100056.66
2022-12-27T07:35:43.463Z,100052.56
2022-12-27T07:38:12.139Z,100060.16
2022-12-27T07:40:39.218Z,100055.84
2022-12-27T07:43:06.037Z,100057.69
2022-12-27T07:45:32.940Z,100073.91
2022-12-27T07:47:59.800Z,100078.44
2022-12-27T07:50:26.587Z,100080.47
2022-12-27T07:52:53.336Z,100076.34
2022-12-27T07:55:22.867Z,100085.06
2022-12-27T07:57:50.680Z,100102.00
2022-12-27T08:00:17.462Z,100094.16
2022-12-27T08:02:44.415Z,100101.53
2022-12-27T08:05:11.245Z,100104.03
2022-12-27T08:07:38.114Z,100114.78
2022-12-27T08:10:05.029Z,100119.78
2022-12-27T08:12:32.855Z,100118.66
2022-12-27T08:14:59.610Z,100137.66
2022-12-27T08:17:26.711Z,100138.78
2022-12-27T08:19:53.540Z,100135.47
2022-12-27T08:22:20.529Z,100146.81
2022-12-27T08:24:47.335Z,100153.66
2022-12-27T08:27:14.125Z,100148.53
2022-12-27T08:29:41.225Z,100168.47
2022-12-27T08:32:08.169Z,100147.38
2022-12-27T08:34:34.992Z,100160.28
2022-12-27T08:37:01.870Z,100166.09
2022-12-27T08:39:28.696Z,100169.75
2022-12-27T08:41:55.530Z,100169.53
2022-12-27T08:44:22.271Z,100171.97
2022-12-27T08:46:49.479Z,100173.00
2022-12-27T08:49:16.422Z,100168.09
2022-12-27T08:51:43.319Z,100178.50
2022-12-27T08:54:10.725Z,100180.03
2022-12-27T08:56:37.864Z,100183.09
2022-12-27T08:59:04.670Z,100179.59
2022-12-27T09:01:31.592Z,100174.88
2022-12-27T09:04:05.967Z,100176.16
2022-12-27T09:06:33.368Z,100193.16
2022-12-27T09:09:00.190Z,100195.84
2022-12-27T09:11:28.270Z,100197.97
2022-12-27T09:13:55.549Z,100193.03
2022-12-27T09:16:22.395Z,100208.78
2022-12-27T09:18:49.209Z,100204.91
2022-12-27T09:21:18.195Z,100202.88
2022-12-27T09:23:45.386Z,100212.47
2022-12-27T09:26:12.331Z,100204.34
2022-12-27T09:28:39.191Z,100204.19
2022-12-27T09:31:06.107Z,100209.28
2022-12-27T09:33:33.171Z,100202.88
2022-12-27T09:36:00.103Z,100213.06
2022-12-27T09:38:26.949Z,100208.13
2022-12-27T09:40:53.985Z,100213.72
2022-12-27T09:43:27.538Z,100217.31
2022-12-27T09:45:54.957Z,100206.09
2022-12-27T09:48:25.057Z,100200.78
2022-12-27T09:50:54.639Z,100210.50
2022-12-27T09:53:21.933Z,100190.53
2022-12-27T09:55:48.747Z,100200.28
2022-12-27T09:58:15.583Z,100209.50
2022-12-27T10:00:46.438Z,100218.16
2022-12-27T10:03:13.743Z,100207.97
2022-12-27T10:05:40.610Z,100205.28
2022-12-27T10:08:07.477Z,100200.50
2022-12-27T10:10:34.250Z,100201.50
2022-12-27T10:13:01.117Z,100200.94
2022-12-27T10:15:27.891Z,100201.81
2022-12-27T10:17:54.661Z,100205.28
2022-12-27T10:20:21.497Z,100209.31
2022-12-27T10:22:48.798Z,100212.44
2022-12-27T10:25:15.806Z,100211.13
2022-12-27T10:27:43.267Z,100209.91
2022-12-27T10:30:10.086Z,100209.13
2022-12-27T10:32:36.966Z,100210.22
2022-12-27T10:35:03.809Z,100212.91
2022-12-27T10:37:30.796Z,100214.09
2022-12-27T10:39:58.902Z,100214.91
2022-12-27T10:42:25.750Z,100207.72
2022-12-27T10:44:52.641Z,100223.13
2022-12-27T10:47:19.484Z,100221.97
2022-12-27T10:49:46.465Z,100219.44
2022-12-27T10:52:13.235Z,100212.28
2022-12-27T10:54:40.307Z,100216.56
2022-12-27T10:57:07.153Z,100227.88
2022-12-27T10:59:33.959Z,100219.81
2022-12-27T11:02:01.183Z,100217.03
2022-12-27T11:04:29.475Z,100205.41
2022-12-27T11:06:56.302Z,100202.59
2022-12-27T11:09:23.161Z,100197.81
2022-12-27T11:11:50.055Z,100195.81
2022-12-27T11:14:16.880Z,100183.84
2022-12-27T11:16:44.307Z,100188.56
2022-12-27T11:19:11.197Z,100179.13
2022-12-27T11:21:38.043Z,100182.97
2022-12-27T11:24:05.034Z,100190.69
2022-12-27T11:26:34.157Z,100187.28
2022-12-27T11:29:01.002Z,100186.44
2022-12-27T11:31:27.825Z,100187.84
2022-12-27T11:33:54.739Z,100183.69
2022-12-27T11:36:21.803Z,100177.22
2022-12-27T11:38:48.631Z,100181.25
2022-12-27T11:41:15.735Z,100171.78
2022-12-27T11:43:42.747Z,100167.69
2022-12-27T11:46:09.490Z,100154.56
2022-12-27T11:56:51.945Z,100145.31
2022-12-27T11:59:37.517Z,100142.25
2022-12-27T12:21:28.017Z,100128.75
2022-12-27T13:56:52.706Z,100135.69
2022-12-27T13:59:08.756Z,100128.28
2022-12-27T14:01:35.714Z,100129.34
2022-12-27T14:04:02.733Z,100136.50
2022-12-27T14:06:29.611Z,100136.50
2022-12-27T14:08:56.462Z,100125.72
2022-12-27T14:11:24.123Z,100119.00
2022-12-27T14:13:50.987Z,100133.31
2022-12-27T14:16:18.058Z,100147.91
2022-12-27T14:18:44.883Z,100142.59
2022-12-27T14:21:13.414Z,100140.25
2022-12-27T14:23:40.280Z,100142.34
2022-12-27T14:26:07.237Z,100140.88
2022-12-27T14:28:34.062Z,100153.69
2022-12-27T14:31:01.092Z,100146.97
2022-12-27T14:33:28.167Z,100149.06
2022-12-27T14:35:54.929Z,100149.44
2022-12-27T14:38:22.102Z,100142.09
2022-12-27T14:40:48.939Z,100148.34
2022-12-27T14:43:15.743Z,100152.38
2022-12-27T14:45:42.566Z,100154.41
2022-12-27T14:48:09.411Z,100157.84
2022-12-27T14:50:36.379Z,100157.78
2022-12-27T14:53:03.344Z,100162.84
2022-12-27T14:55:30.336Z,100167.81
2022-12-27T14:57:57.283Z,100161.22
2022-12-27T15:00:24.255Z,100164.41
2022-12-27T15:02:51.411Z,100167.72
2022-12-27T15:05:19.112Z,100171.22
2022-12-27T15:07:46.030Z,100169.97
2022-12-27T15:10:12.879Z,100170.28
2022-12-27T15:12:39.843Z,100173.88
2022-12-27T15:15:06.778Z,100177.19
2022-12-27T15:17:34.051Z,100178.09
2022-12-27T15:20:00.972Z,100194.78
2022-12-27T15:22:27.787Z,100193.75
2022-12-27T15:24:54.620Z,100198.41
2022-12-27T15:27:22.099Z,100197.59
2022-12-27T15:29:49.019Z,100190.38
2022-12-27T15:32:15.975Z,100205.38
2022-12-27T15:34:42.749Z,100204.25
2022-12-27T15:37:09.770Z,100208.41
2022-12-27T15:39:36.616Z,100204.72
2022-12-27T15:42:03.643Z,100200.88
2022-12-27T15:44:31.938Z,100200.88
2022-12-27T15:46:58.872Z,100211.38
2022-12-27T15:49:25.969Z,100219.75
2022-12-27T15:51:53.367Z,100213.34
2022-12-27T15:54:20.275Z,100210.72
2022-12-27T15:56:47.312Z,100216.91
2022-12-27T15:59:14.231Z,100210.06
2022-12-27T16:01:42.386Z,100213.50
2022-12-27T16:04:09.349Z,100209.97
2022-12-27T16:06:36.409Z,100210.06
2022-12-27T16:09:03.398Z,100215.38
2022-12-27T16:11:30.265Z,100214.47
2022-12-27T16:13:57.361Z,100219.81
2022-12-27T16:16:24.349Z,100211.41
2022-12-27T16:18:51.523Z,100212.69
2022-12-27T16:21:18.504Z,100224.84
2022-12-27T16:23:45.773Z,100226.91
2022-12-27T16:26:12.619Z,100224.97
2022-12-27T16:28:39.757Z,100229.41
2022-12-27T16:31:06.656Z,100228.28
2022-12-27T16:33:33.584Z,100238.22
2022-12-27T16:36:00.507Z,100241.88
2022-12-27T16:38:27.412Z,100243.31
2022-12-27T16:40:54.310Z,100247.38
2022-12-27T16:43:21.189Z,100247.34
2022-12-27T16:45:48.191Z,100250.84
2022-12-27T16:48:15.185Z,100247.84
2022-12-27T16:50:42.340Z,100243.16
2022-12-27T16:53:09.458Z,100241.72
2022-12-27T16:55:36.254Z,100245.72
2022-12-27T16:58:03.329Z,100246.44
2022-12-27T17:00:30.404Z,100242.16
2022-12-27T17:02:57.396Z,100251.03
2022-12-27T17:05:24.383Z,100257.44
2022-12-27T17:07:51.303Z,100261.84
2022-12-27T17:10:18.206Z,100252.75
2022-12-27T17:12:45.058Z,100254.63
2022-12-27T17:15:12.106Z,100252.44
2022-12-27T17:17:38.953Z,100244.47
2022-12-27T17:20:06.094Z,100255.84
2022-12-27T17:22:35.270Z,100254.16
2022-12-27T17:25:02.860Z,100253.28
2022-12-27T17:27:30.840Z,100245.38
2022-12-27T17:29:57.676Z,100244.53
2022-12-27T17:32:24.854Z,100245.84
2022-12-27T17:34:51.994Z,100243.88
2022-12-27T17:37:18.960Z,100243.81
2022-12-27T17:39:45.863Z,100243.38
2022-12-27T17:42:12.741Z,100238.63
2022-12-27T17:44:40.553Z,100234.31
2022-12-27T17:47:11.809Z,100245.06
2022-12-27T17:49:42.584Z,100245.13
2022-12-27T17:52:09.568Z,100243.63
2022-12-27T17:54:36.473Z,100239.28
2022-12-27T17:57:03.456Z,100245.13
2022-12-27T17:59:30.393Z,100247.72
2022-12-27T18:01:57.295Z,100241.56
2022-12-27T18:04:24.347Z,100251.22
2022-12-27T18:06:51.618Z,100243.59
2022-12-27T18:09:18.804Z,100248.75
2022-12-27T18:11:45.967Z,100247.19
2022-12-27T18:14:13.299Z,100241.13
2022-12-27T18:16:40.413Z,100237.00
2022-12-27T18:19:07.389Z,100239.84
2022-12-27T18:21:34.266Z,100233.66
2022-12-27T18:24:01.075Z,100230.44
2022-12-27T18:26:28.099Z,100227.84
2022-12-27T18:28:55.408Z,100218.38
2022-12-27T18:31:23.003Z,100225.19
2022-12-27T18:33:50.538Z,100216.03
2022-12-27T18:36:18.068Z,100216.75
2022-12-27T18:38:44.990Z,100210.66
2022-12-27T18:41:12.164Z,100209.91
2022-12-27T18:43:39.307Z,100205.00
2022-12-27T18:46:06.414Z,100198.84
2022-12-27T18:48:33.674Z,100203.13
2022-12-27T18:51:00.774Z,100195.50
2022-12-27T18:53:27.569Z,100196.72
2022-12-27T18:55:54.508Z,100190.25
2022-12-27T18:58:21.847Z,100185.06
2022-12-27T19:00:51.452Z,100172.66
2022-12-27T19:03:19.306Z,100172.50
2022-12-27T19:05:46.256Z,100179.81
2022-12-27T19:08:13.119Z,100183.41
2022-12-27T19:10:40.086Z,100192.66
2022-12-27T19:13:07.332Z,100191.00
2022-12-27T19:15:34.234Z,100195.13
2022-12-27T19:18:01.512Z,100188.13
2022-12-27T19:20:28.466Z,100189.66
2022-12-27T19:22:55.465Z,100186.28
2022-12-27T19:25:22.664Z,100193.50
2022-12-27T19:27:49.940Z,100191.88
2022-12-27T19:30:16.958Z,100186.06
2022-12-27T19:32:45.811Z,100186.28
2022-12-27T19:35:13.107Z,100187.94
2022-12-27T19:37:40.426Z,100190.03
2022-12-27T19:40:07.446Z,100191.53
2022-12-27T19:42:34.592Z,100210.34
2022-12-27T19:45:01.806Z,100209.72
2022-12-27T19:47:28.732Z,100211.00
2022-12-27T19:49:55.601Z,100216.94
2022-12-27T19:52:22.656Z,100214.38
2022-12-27T19:54:49.655Z,100225.59
2022-12-27T19:57:16.534Z,100224.38
2022-12-27T19:59:43.317Z,100216.38
2022-12-27T20:02:10.478Z,100222.06
2022-12-27T20:04:38.432Z,100227.25
2022-12-27T20:07:05.816Z,100231.53
2022-12-27T20:09:32.777Z,100231.50
2022-12-27T20:11:59.648Z,100242.94
2022-12-27T20:14:26.780Z,100235.81
2022-12-27T20:16:54.497Z,100243.84
2022-12-27T20:19:21.469Z,100251.09
2022-12-27T20:21:48.346Z,100246.78
2022-12-27T20:24:15.200Z,100253.09
2022-12-27T20:26:42.273Z,100255.69
2022-12-27T20:29:09.953Z,100247.84
2022-12-27T20:31:44.283Z,100246.75
2022-12-27T20:34:13.510Z,100252.91
2022-12-27T20:36:40.573Z,100252.31
2022-12-27T20:39:07.601Z,100256.72
2022-12-27T20:41:34.879Z,100249.00
2022-12-27T20:44:02.148Z,100259.63
2022-12-27T20:46:29.186Z,100256.97
2022-12-27T20:48:57.017Z,100259.31
2022-12-27T20:51:23.976Z,100253.94
2022-12-27T20:53:51.025Z,100258.16
2022-12-27T20:56:18.169Z,100260.69
2022-12-27T20:58:45.788Z,100251.91
2022-12-27T21:01:12.812Z,100254.56
2022-12-27T21:03:40.313Z,100253.72
2022-12-27T21:06:07.426Z,100257.22
2022-12-27T21:08:40.485Z,100256.38
2022-12-27T21:11:12.319Z,100247.50
2022-12-27T21:13:39.232Z,100258.03
2022-12-27T21:16:06.044Z,100252.72
2022-12-27T21:18:32.902Z,100253.56
2022-12-27T21:21:00.079Z,100260.59
2022-12-27T21:23:26.936Z,100255.63
2022-12-27T21:25:53.833Z,100249.72
2022-12-27T21:28:20.863Z,100251.38
2022-12-27T21:30:48.767Z,100243.50
2022-12-27T21:33:16.051Z,100251.44
2022-12-27T21:35:42.893Z,100247.16
2022-12-27T21:38:09.762Z,100240.25
2022-12-27T21:40:36.815Z,100238.47
2022-12-27T21:43:03.714Z,100239.53
2022-12-27T21:45:31.020Z,100230.91
2022-12-27T21:47:58.210Z,100233.41
2022-12-27T21:50:25.595Z,100238.53
2022-12-27T21:52:53.118Z,100235.94
2022-12-27T21:55:19.974Z,100238.56
2022-12-27T21:57:49.828Z,100235.47
2022-12-27T22:00:18.868Z,100226.84
2022-12-27T22:02:46.223Z,100231.84
2022-12-27T22:05:13.359Z,100230.16
2022-12-27T22:07:40.497Z,100229.22
2022-12-27T22:10:07.580Z,100234.16
2022-12-27T22:12:34.515Z,100232.13
2022-12-27T22:15:01.337Z,100223.34
2022-12-27T22:17:28.225Z,100220.63
2022-12-27T22:19:55.508Z,100223.22
2022-12-27T22:22:23.338Z,100217.16
2022-12-27T22:24:50.434Z,100222.34
2022-12-27T22:27:17.398Z,100212.03
2022-12-27T22:29:44.601Z,100216.47
2022-12-27T22:32:11.710Z,100218.22
2022-12-27T22:34:38.616Z,100209.53
2022-12-27T22:37:05.525Z,100206.88
2022-12-27T22:39:32.442Z,100196.53
2022-12-27T22:41:59.573Z,100195.25
2022-12-27T22:44:27.747Z,100200.44
2022-12-27T22:49:41.580Z,100192.50
2022-12-27T22:52:10.467Z,100196.81
2022-12-27T22:55:04.259Z,100191.72
2022-12-27T22:57:25.152Z,100190.81
2022-12-27T22:59:53.001Z,100186.44
2022-12-27T23:02:21.067Z,100186.38
2022-12-27T23:04:48.972Z,100179.31
2022-12-27T23:07:15.981Z,100176.78
2022-12-27T23:09:43.779Z,100180.19
2022-12-27T23:12:10.694Z,100176.84
2022-12-27T23:14:37.927Z,100178.06
2022-12-27T23:17:04.931Z,100174.56
2022-12-27T23:19:32.413Z,100166.91
2022-12-27T23:21:59.237Z,100169.38
2022-12-27T23:24:26.160Z,100169.28
2022-12-27T23:26:52.964Z,100167.06
2022-12-27T23:29:19.841Z,100160.03
2022-12-27T23:31:54.108Z,100159.03
2022-12-27T23:34:27.342Z,100154.94
2022-12-27T23:36:55.777Z,100158.19
2022-12-27T23:39:22.714Z,100159.78
2022-12-27T23:41:49.544Z,100152.16
2022-12-27T23:44:19.811Z,100145.38
2022-12-27T23:47:00.397Z,100146.19
2022-12-27T23:49:27.371Z,100153.03
2022-12-27T23:51:54.347Z,100144.38
2022-12-27T23:54:22.205Z,100143.47
2022-12-27T23:56:49.053Z,100140.78
2022-12-27T23:59:15.971Z,100142.44
